createdAt,value
2022-12-16T00:02:13.518Z,55.17
2022-12-16T00:08:15.837Z,61.05
2022-12-16T00:14:18.248Z,67.28
2022-12-16T00:20:20.764Z,54.13
2022-12-16T00:32:25.756Z,50.73
2022-12-16T00:38:27.980Z,51.80
2022-12-16T00:44:30.379Z,59.03
2022-12-16T00:50:33.844Z,58.95
2022-12-16T00:56:37.280Z,52.88
2022-12-16T01:02:41.821Z,60.83
2022-12-16T01:08:53.936Z,70.13
2022-12-16T01:21:07.165Z,37.33
2022-12-16T01:27:11.347Z,24.85
2022-12-16T01:33:13.666Z,41.85
2022-12-16T01:39:16.074Z,37.03
2022-12-16T01:45:36.075Z,40.08
2022-12-16T01:51:46.091Z,49.05
2022-12-16T01:57:56.771Z,39.15
2022-12-16T02:04:02.093Z,37.25
2022-12-16T02:10:05.094Z,32.47
2022-12-16T02:16:20.668Z,22.50
2022-12-16T02:23:05.085Z,29.55
2022-12-16T02:29:44.335Z,29.23
2022-12-16T02:35:59.308Z,30.40
2022-12-16T02:42:10.901Z,57.70
2022-12-16T02:48:13.242Z,34.53
2022-12-16T02:54:16.135Z,35.17
2022-12-16T03:00:23.759Z,29.25
2022-12-16T03:06:28.181Z,59.60
2022-12-16T03:12:31.199Z,33.72
2022-12-16T03:18:34.093Z,38.60
2022-12-16T03:24:36.763Z,46.75
2022-12-16T03:30:46.501Z,45.40
2022-12-16T03:36:54.265Z,27.67
2022-12-16T03:42:57.747Z,30.15
2022-12-16T03:49:00.341Z,39.28
2022-12-16T04:01:04.938Z,42.85
2022-12-16T04:13:56.784Z,49.83
2022-12-16T04:20:17.631Z,37.42
2022-12-16T04:26:20.514Z,43.25
2022-12-16T04:32:23.448Z,24.40
2022-12-16T04:38:44.253Z,35.85
2022-12-16T04:45:05.176Z,37.67
2022-12-16T04:51:25.972Z,39.10
2022-12-16T04:57:46.570Z,43.40
2022-12-16T05:04:08.194Z,56.05
2022-12-16T05:10:29.094Z,32.10
2022-12-16T05:16:49.969Z,35.80
2022-12-16T05:23:10.932Z,49.15
2022-12-16T05:29:31.633Z,52.03
2022-12-16T05:35:52.427Z,35.17
2022-12-16T05:42:14.424Z,32.72
2022-12-16T05:48:35.537Z,30.67
2022-12-16T05:54:56.343Z,23.77
2022-12-16T06:01:21.927Z,24.40
2022-12-16T06:07:43.201Z,40.10
2022-12-16T06:14:03.859Z,27.08
2022-12-16T06:20:25.863Z,45.00
2022-12-16T06:26:46.713Z,25.67
2022-12-16T06:33:07.489Z,81.30
2022-12-16T06:39:28.644Z,50.30
2022-12-16T06:45:49.309Z,38.50
2022-12-16T06:52:09.972Z,36.95
2022-12-16T06:58:30.579Z,36.85
2022-12-16T07:04:51.327Z,23.73
2022-12-16T07:11:16.968Z,28.85
2022-12-16T07:17:37.994Z,26.25
2022-12-16T07:23:59.014Z,27.58
2022-12-16T07:30:19.899Z,31.33
2022-12-16T07:36:40.823Z,39.75
2022-12-16T07:43:02.344Z,25.38
2022-12-16T07:49:23.279Z,37.30
2022-12-16T07:55:44.279Z,34.45
2022-12-16T08:02:05.130Z,37.15
2022-12-16T08:08:25.824Z,47.70
2022-12-16T08:14:46.741Z,31.33
2022-12-16T08:21:07.245Z,51.47
2022-12-16T08:27:28.375Z,41.08
2022-12-16T08:33:49.256Z,44.08
2022-12-16T08:40:34.421Z,46.42
2022-12-16T08:46:51.102Z,41.42
2022-12-16T08:53:11.773Z,35.25
2022-12-16T08:59:32.659Z,38.95
2022-12-16T09:05:53.651Z,33.25
2022-12-16T09:12:14.946Z,44.22
2022-12-16T09:18:35.868Z,44.20
2022-12-16T09:24:56.727Z,54.83
2022-12-16T09:31:17.451Z,35.55
2022-12-16T09:37:38.211Z,42.97
2022-12-16T09:44:05.764Z,30.27
2022-12-16T09:50:38.943Z,36.90
2022-12-16T09:57:01.616Z,33.13
2022-12-16T10:03:34.449Z,32.23
2022-12-16T10:10:11.091Z,31.93
2022-12-16T10:16:47.708Z,34.72
2022-12-16T10:23:37.986Z,43.38
2022-12-16T10:30:01.911Z,46.03
2022-12-16T10:36:23.981Z,49.70
2022-12-16T10:42:50.377Z,36.15
2022-12-16T10:49:11.630Z,47.58
2022-12-16T10:56:09.741Z,41.08
2022-12-16T11:02:40.455Z,46.88
2022-12-16T11:09:01.543Z,45.55
2022-12-16T11:15:42.178Z,42.88
2022-12-16T11:22:04.147Z,50.33
2022-12-16T11:28:33.654Z,56.55
2022-12-16T11:34:55.004Z,58.28
2022-12-16T11:41:18.105Z,50.55
2022-12-16T11:48:08.600Z,56.58
2022-12-16T11:54:40.216Z,61.92
2022-12-16T12:01:11.118Z,56.50
2022-12-16T12:07:44.861Z,71.25
2022-12-16T12:14:12.315Z,75.13
2022-12-16T12:20:51.317Z,62.60
2022-12-16T12:27:19.477Z,80.55
2022-12-16T12:33:55.699Z,77.07
2022-12-16T12:40:54.910Z,76.30
2022-12-16T12:47:24.344Z,63.50
2022-12-16T12:54:09.426Z,64.90
2022-12-16T13:00:37.613Z,65.30
2022-12-16T13:06:59.115Z,72.30
2022-12-16T13:13:35.072Z,72.22
2022-12-16T13:20:00.375Z,96.65
2022-12-16T13:26:24.736Z,79.55
2022-12-16T13:32:45.550Z,100.00
2022-12-16T13:39:12.083Z,193.68
2022-12-16T13:45:54.205Z,73.50
2022-12-16T13:52:20.145Z,78.85
2022-12-16T13:58:54.072Z,83.43
2022-12-16T14:05:14.835Z,76.03
2022-12-16T14:11:42.186Z,81.80
2022-12-16T14:18:13.566Z,84.80
2022-12-16T14:24:46.387Z,94.57
2022-12-16T14:31:07.012Z,116.93
2022-12-16T14:37:52.322Z,98.97
2022-12-16T14:44:13.390Z,91.18
2022-12-16T14:50:41.113Z,88.65
2022-12-16T14:57:01.698Z,103.05
2022-12-16T15:03:54.190Z,104.72
2022-12-16T15:16:47.987Z,95.85
2022-12-16T15:23:09.171Z,97.13
2022-12-16T15:29:55.343Z,85.70
2022-12-16T15:36:20.898Z,84.78
2022-12-16T15:42:50.057Z,88.85
2022-12-16T15:49:11.361Z,92.45
2022-12-16T15:55:46.879Z,92.38
2022-12-16T16:02:07.646Z,87.28
2022-12-16T16:08:30.137Z,81.18
2022-12-16T16:14:51.256Z,79.83
2022-12-16T16:21:12.142Z,87.45
2022-12-16T16:27:33.933Z,105.88
2022-12-16T16:33:54.875Z,96.53
2022-12-16T16:40:15.537Z,91.47
2022-12-16T16:46:39.036Z,91.10
2022-12-16T16:59:20.542Z,99.60
2022-12-16T17:05:41.371Z,95.30
2022-12-16T17:12:02.138Z,102.65
2022-12-16T17:18:23.925Z,100.13
2022-12-16T17:24:48.440Z,93.03
2022-12-16T17:31:11.094Z,98.47
2022-12-16T17:37:31.705Z,107.93
2022-12-16T17:43:52.615Z,92.15
2022-12-16T17:50:13.670Z,110.20
2022-12-16T17:56:34.928Z,95.13
2022-12-16T18:02:55.950Z,84.70
2022-12-16T18:09:17.004Z,97.07
2022-12-16T18:15:37.647Z,104.28
2022-12-16T18:21:58.577Z,97.50
2022-12-16T18:28:19.438Z,112.03
2022-12-16T18:34:40.204Z,117.18
2022-12-16T18:41:00.892Z,105.60
2022-12-16T18:47:21.778Z,105.00
2022-12-16T18:53:42.464Z,91.22
2022-12-16T19:00:03.315Z,121.57
2022-12-16T19:06:24.553Z,114.63
2022-12-16T19:12:45.376Z,113.05
2022-12-16T19:19:06.112Z,110.53
2022-12-16T19:25:26.858Z,113.75
2022-12-16T19:31:48.234Z,105.45
2022-12-16T19:38:09.464Z,96.00
2022-12-16T19:44:30.566Z,116.00
2022-12-16T19:50:51.714Z,101.38
2022-12-16T19:57:12.455Z,102.05
2022-12-16T20:03:38.336Z,108.00
2022-12-16T20:09:59.496Z,110.88
2022-12-16T20:16:25.982Z,92.20
2022-12-16T20:22:46.475Z,103.38
2022-12-16T20:29:08.555Z,110.90
2022-12-16T20:35:30.517Z,102.30
2022-12-16T20:41:51.813Z,94.82
2022-12-16T20:48:13.532Z,89.40
2022-12-16T20:54:34.068Z,94.03
2022-12-16T21:00:56.361Z,71.55
2022-12-16T21:07:16.973Z,81.93
2022-12-16T21:13:37.625Z,67.63
2022-12-16T21:20:15.233Z,63.35
2022-12-16T21:26:35.929Z,68.75
2022-12-16T21:32:56.758Z,74.10
2022-12-16T21:39:18.032Z,60.58
2022-12-16T21:45:39.054Z,76.68
2022-12-16T21:52:00.034Z,63.70
2022-12-16T21:58:20.723Z,53.80
2022-12-16T22:04:41.970Z,62.65
2022-12-16T22:11:02.729Z,57.13
2022-12-16T22:17:23.387Z,67.10
2022-12-16T22:23:48.942Z,51.65
2022-12-16T22:30:09.748Z,66.18
2022-12-16T22:36:32.740Z,70.05
2022-12-16T22:42:53.700Z,59.38
2022-12-16T22:49:17.171Z,66.95
2022-12-16T22:55:37.736Z,58.20
2022-12-16T23:01:58.721Z,71.07
2022-12-16T23:08:19.424Z,70.32
2022-12-16T23:14:42.935Z,68.65
2022-12-16T23:21:07.774Z,67.60
2022-12-16T23:27:28.622Z,66.35
2022-12-16T23:33:49.540Z,63.92
2022-12-16T23:40:10.162Z,55.83
2022-12-16T23:46:30.707Z,54.88
2022-12-16T23:52:51.302Z,68.32
2022-12-16T23:59:12.566Z,57.55
